createdAt,value
2019-05-12T00:02:03.880Z,53.41
2019-05-12T00:04:38.525Z,54.65
2019-05-12T00:07:10.871Z,57.15
2019-05-12T00:09:43.560Z,58.76
2019-05-12T00:12:18.398Z,59.88
2019-05-12T00:14:51.390Z,63.13
2019-05-12T00:17:24.040Z,57.76
2019-05-12T00:19:58.368Z,53.16
2019-05-12T00:22:32.481Z,55.63
2019-05-12T00:25:08.764Z,58.04
2019-05-12T00:27:41.525Z,59.59
2019-05-12T00:30:34.299Z,61.83
2019-05-12T00:33:09.335Z,64.44
2019-05-12T00:35:41.613Z,57.80
2019-05-12T00:38:14.250Z,54.13
2019-05-12T00:40:48.022Z,56.64
2019-05-12T00:43:21.038Z,59.23
2019-05-12T00:45:53.295Z,60.42
2019-05-12T00:48:28.252Z,63.16
2019-05-12T00:51:00.411Z,56.40
2019-05-12T00:53:39.686Z,54.21
2019-05-12T00:56:08.513Z,56.64
2019-05-12T00:58:41.314Z,59.25
2019-05-12T01:01:13.997Z,60.68
2019-05-12T01:03:48.365Z,62.37
2019-05-12T01:06:21.401Z,55.65
2019-05-12T01:08:54.183Z,54.71
2019-05-12T01:11:28.514Z,56.92
2019-05-12T01:14:01.383Z,59.55
2019-05-12T01:16:34.407Z,61.39
2019-05-12T01:19:08.504Z,63.52
2019-05-12T01:21:41.349Z,59.75
2019-05-12T01:24:14.475Z,53.66
2019-05-12T01:26:47.688Z,56.15
2019-05-12T01:29:21.255Z,58.28
2019-05-12T01:31:58.562Z,61.05
2019-05-12T01:34:32.344Z,61.66
2019-05-12T01:37:22.634Z,62.86
2019-05-12T01:39:59.705Z,51.92
2019-05-12T01:42:32.299Z,54.00
2019-05-12T01:45:06.003Z,57.74
2019-05-12T01:47:38.682Z,59.53
2019-05-12T01:50:12.991Z,61.04
2019-05-12T01:52:47.723Z,62.38
2019-05-12T01:55:19.616Z,57.47
2019-05-12T01:57:53.594Z,53.20
2019-05-12T02:00:28.675Z,56.15
2019-05-12T02:03:01.719Z,59.09
2019-05-12T02:05:37.953Z,60.85
2019-05-12T02:08:11.469Z,61.76
2019-05-12T02:10:44.153Z,55.09
2019-05-12T02:13:18.272Z,55.72
2019-05-12T02:15:51.056Z,59.19
2019-05-12T02:18:23.728Z,60.97
2019-05-12T02:20:57.736Z,62.32
2019-05-12T02:23:30.692Z,62.32
2019-05-12T02:26:03.606Z,53.22
2019-05-12T02:28:36.281Z,53.69
2019-05-12T02:31:09.554Z,56.07
2019-05-12T02:33:44.600Z,58.69
2019-05-12T02:36:16.880Z,61.11
2019-05-12T02:38:49.236Z,63.30
2019-05-12T02:41:22.133Z,55.63
2019-05-12T02:43:56.461Z,54.73
2019-05-12T02:46:29.136Z,57.54
2019-05-12T02:49:04.853Z,59.86
2019-05-12T02:51:36.951Z,62.98
2019-05-12T02:54:09.998Z,61.00
2019-05-12T02:56:44.928Z,54.02
2019-05-12T02:59:19.096Z,56.07
2019-05-12T03:01:55.096Z,58.78
2019-05-12T03:04:27.761Z,61.41
2019-05-12T03:07:06.673Z,62.55
2019-05-12T03:09:44.533Z,53.37
2019-05-12T03:12:15.785Z,55.06
2019-05-12T03:14:48.366Z,58.32
2019-05-12T03:17:21.066Z,60.27
2019-05-12T03:19:55.653Z,63.27
2019-05-12T03:22:28.553Z,58.72
2019-05-12T03:25:11.347Z,55.70
2019-05-12T03:27:36.476Z,59.13
2019-05-12T03:30:11.315Z,61.61
2019-05-12T03:32:47.164Z,64.30
2019-05-12T03:35:18.501Z,56.82
2019-05-12T03:37:51.393Z,54.25
2019-05-12T03:40:24.919Z,57.51
2019-05-12T03:42:57.661Z,60.25
2019-05-12T03:45:30.249Z,62.93
2019-05-12T03:48:04.319Z,59.97
2019-05-12T03:50:36.958Z,54.57
2019-05-12T03:53:11.081Z,56.98
2019-05-12T03:55:47.011Z,60.10
2019-05-12T03:58:17.288Z,61.55
2019-05-12T04:00:49.913Z,62.39
2019-05-12T04:03:24.682Z,54.18
2019-05-12T04:05:56.590Z,56.20
2019-05-12T04:08:29.266Z,58.81
2019-05-12T04:11:05.026Z,61.32
2019-05-12T04:13:36.274Z,63.32
2019-05-12T04:16:08.486Z,54.43
2019-05-12T04:18:44.731Z,55.26
2019-05-12T04:21:15.843Z,58.43
2019-05-12T04:23:48.827Z,61.72
2019-05-12T04:26:25.043Z,62.75
2019-05-12T04:28:57.470Z,54.39
2019-05-12T04:31:30.153Z,54.23
2019-05-12T04:34:05.118Z,57.06
2019-05-12T04:36:37.849Z,60.04
2019-05-12T04:39:10.733Z,63.59
2019-05-12T04:41:44.667Z,58.99
2019-05-12T04:44:17.647Z,54.32
2019-05-12T04:46:50.267Z,57.16
2019-05-12T04:49:24.968Z,60.80
2019-05-12T04:51:58.851Z,63.27
2019-05-12T04:54:35.347Z,59.10
2019-05-12T04:57:06.292Z,54.57
2019-05-12T04:59:38.924Z,57.48
2019-05-12T05:02:11.616Z,60.18
2019-05-12T05:04:45.515Z,62.71
2019-05-12T05:07:18.091Z,61.16
2019-05-12T05:09:50.778Z,53.18
2019-05-12T05:12:24.010Z,55.32
2019-05-12T05:14:56.750Z,58.15
2019-05-12T05:17:29.329Z,61.30
2019-05-12T05:20:04.040Z,63.68
2019-05-12T05:22:38.039Z,61.75
2019-05-12T05:25:10.712Z,53.60
2019-05-12T05:27:44.398Z,56.43
2019-05-12T05:30:17.427Z,59.39
2019-05-12T05:32:50.113Z,62.16
2019-05-12T05:35:23.888Z,65.22
2019-05-12T05:37:56.597Z,60.03
2019-05-12T05:40:30.392Z,54.50
2019-05-12T05:43:12.261Z,57.85
2019-05-12T05:45:37.603Z,60.57
2019-05-12T05:48:10.679Z,63.83
2019-05-12T05:50:43.923Z,59.75
2019-05-12T05:53:19.536Z,54.95
2019-05-12T05:55:58.628Z,57.86
2019-05-12T05:58:26.206Z,61.40
2019-05-12T06:01:05.932Z,63.10
2019-05-12T06:03:33.845Z,61.15
2019-05-12T06:06:12.229Z,54.14
2019-05-12T06:08:41.035Z,56.50
2019-05-12T06:11:22.733Z,59.53
2019-05-12T06:13:48.030Z,62.57
2019-05-12T06:16:22.060Z,62.00
2019-05-12T06:18:54.509Z,52.47
2019-05-12T06:21:29.143Z,54.03
2019-05-12T06:24:03.330Z,58.48
2019-05-12T06:26:35.902Z,60.65
2019-05-12T06:29:11.232Z,63.78
2019-05-12T06:31:44.288Z,57.91
2019-05-12T06:34:20.893Z,54.57
2019-05-12T06:36:54.791Z,58.08
2019-05-12T06:39:25.665Z,62.08
2019-05-12T06:42:11.648Z,64.10
2019-05-12T06:44:33.500Z,56.36
2019-05-12T06:47:08.228Z,55.65
2019-05-12T06:49:40.581Z,57.98
2019-05-12T06:52:14.332Z,62.17
2019-05-12T06:54:51.404Z,65.03
2019-05-12T06:57:27.816Z,57.63
2019-05-12T06:59:55.288Z,54.55
2019-05-12T07:02:30.183Z,57.11
2019-05-12T07:05:04.370Z,61.30
2019-05-12T07:07:42.178Z,63.91
2019-05-12T07:10:15.248Z,59.46
2019-05-12T07:12:58.186Z,55.19
2019-05-12T07:15:19.821Z,58.16
2019-05-12T07:18:10.464Z,60.97
2019-05-12T07:20:43.631Z,62.59
2019-05-12T07:23:19.604Z,60.09
2019-05-12T07:25:50.575Z,56.06
2019-05-12T07:28:23.733Z,58.66
2019-05-12T07:30:57.402Z,61.75
2019-05-12T07:33:32.886Z,63.37
2019-05-12T07:36:06.552Z,54.98
2019-05-12T07:38:40.739Z,56.03
2019-05-12T07:41:15.215Z,59.75
2019-05-12T07:43:50.694Z,61.24
2019-05-12T07:46:27.830Z,64.34
2019-05-12T07:48:58.687Z,55.61
2019-05-12T07:51:38.292Z,55.33
2019-05-12T07:54:04.794Z,58.80
2019-05-12T07:56:40.645Z,61.23
2019-05-12T07:59:13.548Z,63.22
2019-05-12T08:01:51.904Z,57.52
2019-05-12T08:04:19.988Z,55.02
2019-05-12T08:06:53.801Z,57.45
2019-05-12T08:09:32.276Z,60.84
2019-05-12T08:12:04.006Z,63.27
2019-05-12T08:14:37.062Z,58.39
2019-05-12T08:17:11.928Z,53.60
2019-05-12T08:19:44.392Z,56.44
2019-05-12T08:22:18.856Z,59.55
2019-05-12T08:24:53.741Z,61.38
2019-05-12T08:27:25.901Z,62.09
2019-05-12T08:30:01.126Z,54.12
2019-05-12T08:32:33.890Z,55.52
2019-05-12T08:35:08.825Z,59.05
2019-05-12T08:37:43.940Z,61.59
2019-05-12T08:40:15.669Z,62.52
2019-05-12T08:42:48.527Z,61.01
2019-05-12T08:45:25.714Z,53.67
2019-05-12T08:47:55.498Z,55.18
2019-05-12T08:50:31.581Z,58.42
2019-05-12T08:53:04.691Z,59.88
2019-05-12T08:55:36.257Z,62.02
2019-05-12T08:58:08.888Z,61.91
2019-05-12T09:00:50.199Z,52.99
2019-05-12T09:03:20.435Z,53.71
2019-05-12T09:05:53.716Z,56.94
2019-05-12T09:08:26.823Z,59.62
2019-05-12T09:10:59.508Z,61.59
2019-05-12T09:13:33.867Z,60.88
2019-05-12T09:16:09.722Z,53.97
2019-05-12T09:18:43.458Z,56.98
2019-05-12T09:21:16.041Z,59.71
2019-05-12T09:23:48.664Z,60.66
2019-05-12T09:26:24.943Z,63.98
2019-05-12T09:28:55.628Z,56.16
2019-05-12T09:31:29.640Z,55.66
2019-05-12T09:34:05.846Z,59.25
2019-05-12T09:36:36.829Z,61.32
2019-05-12T09:39:09.417Z,64.34
2019-05-12T09:41:46.287Z,56.84
2019-05-12T09:44:20.265Z,52.55
2019-05-12T09:46:50.624Z,55.73
2019-05-12T09:49:31.447Z,57.69
2019-05-12T09:51:57.730Z,59.77
2019-05-12T09:54:35.387Z,62.02
2019-05-12T09:57:04.916Z,64.09
2019-05-12T09:59:37.605Z,54.99
2019-05-12T10:02:15.331Z,54.40
2019-05-12T10:04:44.495Z,56.95
2019-05-12T10:07:17.783Z,59.19
2019-05-12T10:09:55.137Z,61.84
2019-05-12T10:12:24.265Z,61.01
2019-05-12T10:14:56.840Z,55.69
2019-05-12T10:17:30.364Z,57.14
2019-05-12T10:20:03.340Z,59.87
2019-05-12T10:22:39.901Z,61.48
2019-05-12T10:25:14.516Z,64.47
2019-05-12T10:27:47.303Z,59.46
2019-05-12T10:30:20.299Z,54.15
2019-05-12T10:32:52.983Z,55.96
2019-05-12T10:35:26.828Z,59.06
2019-05-12T10:38:00.210Z,60.80
2019-05-12T10:40:34.296Z,61.82
2019-05-12T10:43:07.067Z,61.39
2019-05-12T10:45:39.756Z,55.73
2019-05-12T10:48:14.117Z,57.41
2019-05-12T10:50:47.000Z,59.01
2019-05-12T10:53:19.728Z,59.93
2019-05-12T10:55:54.274Z,63.46
2019-05-12T10:58:26.732Z,56.48
2019-05-12T11:01:05.266Z,51.10
2019-05-12T11:03:33.844Z,53.68
2019-05-12T11:06:07.657Z,56.67
2019-05-12T11:08:41.319Z,58.49
2019-05-12T11:11:14.729Z,60.46
2019-05-12T11:13:50.115Z,61.54
2019-05-12T11:16:30.617Z,61.21
2019-05-12T11:19:00.218Z,54.35
2019-05-12T11:21:33.533Z,55.45
2019-05-12T11:24:05.912Z,59.42
2019-05-12T11:26:38.655Z,59.21
2019-05-12T11:29:11.370Z,60.33
2019-05-12T11:31:44.249Z,61.24
2019-05-12T11:34:16.926Z,61.99
2019-05-12T11:36:49.505Z,62.95
2019-05-12T11:39:23.589Z,59.52
2019-05-12T11:41:56.106Z,57.49
2019-05-12T11:44:28.377Z,59.41
2019-05-12T11:47:03.469Z,60.52
2019-05-12T11:49:35.267Z,60.25
2019-05-12T11:52:15.384Z,60.36
2019-05-12T11:54:49.080Z,61.69
2019-05-12T11:57:20.138Z,57.33
2019-05-12T12:00:00.957Z,55.04
2019-05-12T12:02:26.247Z,55.44
2019-05-12T12:04:59.142Z,58.25
2019-05-12T12:07:33.287Z,60.01
2019-05-12T12:10:08.055Z,60.22
2019-05-12T12:12:47.562Z,61.60
2019-05-12T12:15:20.472Z,60.96
2019-05-12T12:17:53.624Z,61.41
2019-05-12T12:20:26.155Z,61.00
2019-05-12T12:23:00.107Z,60.57
2019-05-12T12:25:34.214Z,61.23
2019-05-12T12:28:07.572Z,62.49
2019-05-12T12:30:40.586Z,55.29
2019-05-12T12:33:14.386Z,54.37
2019-05-12T12:35:50.472Z,55.75
2019-05-12T12:38:21.659Z,59.08
2019-05-12T12:40:54.351Z,60.63
2019-05-12T12:43:27.030Z,62.03
2019-05-12T12:46:04.106Z,59.09
2019-05-12T12:48:36.775Z,52.04
2019-05-12T12:51:09.454Z,52.95
2019-05-12T12:53:43.781Z,53.86
2019-05-12T12:56:24.287Z,54.89
2019-05-12T12:58:50.267Z,56.37
2019-05-12T13:01:28.582Z,56.28
2019-05-12T13:03:59.439Z,58.13
2019-05-12T13:06:31.067Z,58.21
2019-05-12T13:09:16.913Z,57.31
2019-05-12T13:11:44.275Z,58.58
2019-05-12T13:14:16.109Z,59.46
2019-05-12T13:16:54.686Z,59.72
2019-05-12T13:19:24.594Z,59.31
2019-05-12T13:21:57.290Z,60.56
2019-05-12T13:24:29.848Z,60.93
2019-05-12T13:27:03.564Z,61.90
2019-05-12T13:29:39.624Z,62.57
2019-05-12T13:32:13.631Z,53.99
2019-05-12T13:34:45.631Z,54.39
2019-05-12T13:37:19.587Z,56.77
2019-05-12T13:39:56.873Z,58.46
2019-05-12T13:42:30.416Z,58.74
2019-05-12T13:45:00.598Z,60.34
2019-05-12T13:47:39.691Z,59.93
2019-05-12T13:50:13.383Z,61.61
2019-05-12T13:52:44.783Z,62.25
2019-05-12T13:55:17.461Z,60.45
2019-05-12T13:57:55.433Z,51.18
2019-05-12T14:00:24.350Z,51.22
2019-05-12T14:03:03.464Z,53.40
2019-05-12T14:05:31.359Z,54.63
2019-05-12T14:08:05.169Z,55.96
2019-05-12T14:10:43.139Z,57.11
2019-05-12T14:13:14.061Z,57.23
2019-05-12T14:15:46.367Z,59.33
2019-05-12T14:18:20.813Z,57.03
2019-05-12T14:20:58.935Z,56.25
2019-05-12T14:23:27.441Z,55.42
2019-05-12T14:26:02.195Z,55.36
2019-05-12T14:28:34.378Z,56.97
2019-05-12T14:31:06.968Z,56.11
2019-05-12T14:33:39.653Z,53.85
2019-05-12T14:36:13.749Z,54.43
2019-05-12T14:38:46.623Z,54.29
2019-05-12T14:41:19.197Z,55.53
2019-05-12T14:43:53.511Z,54.39
2019-05-12T14:46:26.102Z,55.50
2019-05-12T14:48:58.784Z,57.59
2019-05-12T14:51:33.459Z,55.63
2019-05-12T14:54:05.974Z,55.56
2019-05-12T14:56:38.667Z,56.53
2019-05-12T14:59:11.329Z,55.77
2019-05-12T15:01:53.616Z,54.54
2019-05-12T15:04:19.401Z,53.30
2019-05-12T15:06:53.387Z,52.33
2019-05-12T15:09:26.149Z,52.20
2019-05-12T15:11:58.728Z,50.50
2019-05-12T15:14:37.622Z,46.85
2019-05-12T15:17:05.721Z,46.22
2019-05-12T15:19:38.406Z,45.28
2019-05-12T15:22:12.427Z,44.17
2019-05-12T15:24:49.182Z,44.61
2019-05-12T15:27:20.445Z,44.59
2019-05-12T15:29:56.364Z,44.53
2019-05-12T15:32:27.397Z,43.38
2019-05-12T15:35:00.099Z,44.24
2019-05-12T15:37:34.969Z,44.82
2019-05-12T15:40:09.155Z,44.94
2019-05-12T15:42:41.721Z,45.63
2019-05-12T15:45:16.954Z,45.08
2019-05-12T15:47:49.756Z,46.22
2019-05-12T15:50:23.205Z,47.41
2019-05-12T15:52:56.224Z,46.55
2019-05-12T15:55:32.787Z,47.40
2019-05-12T15:58:05.414Z,48.49
2019-05-12T16:00:38.426Z,49.39
2019-05-12T16:03:11.459Z,48.77
2019-05-12T16:05:44.530Z,50.29
2019-05-12T16:08:18.557Z,49.91
2019-05-12T16:10:51.088Z,50.65
2019-05-12T16:13:24.294Z,52.13
2019-05-12T16:16:03.204Z,52.49
2019-05-12T16:18:31.518Z,52.66
2019-05-12T16:21:09.045Z,53.28
2019-05-12T16:23:39.659Z,53.92
2019-05-12T16:26:15.079Z,54.24
2019-05-12T16:28:46.544Z,56.14
2019-05-12T16:31:18.837Z,55.19
2019-05-12T16:33:53.013Z,55.71
2019-05-12T16:36:25.810Z,55.78
2019-05-12T16:39:00.106Z,55.63
2019-05-12T16:41:34.460Z,56.21
2019-05-12T16:44:16.128Z,56.32
2019-05-12T16:46:41.544Z,56.60
2019-05-12T16:49:14.109Z,57.17
2019-05-12T16:51:47.740Z,57.53
2019-05-12T16:54:20.902Z,58.36
2019-05-12T16:56:53.993Z,60.20
2019-05-12T16:59:26.574Z,60.29
2019-05-12T17:02:05.633Z,60.96
2019-05-12T17:04:40.096Z,60.96
2019-05-12T17:07:20.971Z,61.28
2019-05-12T17:10:02.967Z,62.15
2019-05-12T17:12:40.135Z,60.98
2019-05-12T17:15:17.239Z,53.05
2019-05-12T17:17:50.756Z,53.81
2019-05-12T17:20:24.454Z,55.53
2019-05-12T17:22:59.881Z,56.56
2019-05-12T17:25:30.955Z,58.65
2019-05-12T17:28:05.688Z,58.97
2019-05-12T17:30:38.044Z,60.39
2019-05-12T17:33:13.439Z,60.82
2019-05-12T17:35:45.243Z,61.17
2019-05-12T17:38:20.146Z,62.04
2019-05-12T17:40:56.432Z,62.88
2019-05-12T17:43:26.659Z,53.64
2019-05-12T17:46:01.327Z,49.36
2019-05-12T17:48:37.192Z,51.57
2019-05-12T17:51:20.259Z,53.75
2019-05-12T17:53:55.116Z,56.09
2019-05-12T17:56:38.554Z,57.57
2019-05-12T17:59:14.940Z,59.00
2019-05-12T18:01:53.723Z,59.84
2019-05-12T18:04:35.383Z,60.94
2019-05-12T18:07:19.515Z,62.23
2019-05-12T18:10:00.532Z,64.61
2019-05-12T18:12:44.746Z,55.51
2019-05-12T18:15:25.679Z,51.98
2019-05-12T18:20:40.353Z,56.54
2019-05-12T18:23:19.874Z,58.41
2019-05-12T18:26:03.211Z,59.95
2019-05-12T18:28:39.417Z,60.99
2019-05-12T18:31:18.539Z,62.11
2019-05-12T18:33:57.166Z,63.88
2019-05-12T18:36:36.935Z,54.45
2019-05-12T18:39:15.653Z,51.48
2019-05-12T18:41:54.261Z,53.74
2019-05-12T18:44:34.954Z,56.08
2019-05-12T18:47:16.648Z,58.15
2019-05-12T18:49:54.543Z,59.76
2019-05-12T18:52:39.396Z,61.21
2019-05-12T18:55:15.745Z,62.30
2019-05-12T18:58:00.712Z,63.39
2019-05-12T19:00:39.812Z,54.14
2019-05-12T19:03:21.009Z,51.34
2019-05-12T19:06:03.316Z,53.77
2019-05-12T19:08:43.071Z,56.03
2019-05-12T19:11:22.635Z,57.76
2019-05-12T19:13:57.106Z,59.43
2019-05-12T19:16:37.132Z,60.75
2019-05-12T19:19:16.801Z,61.87
2019-05-12T19:21:58.527Z,64.16
2019-05-12T19:24:27.324Z,55.16
2019-05-12T19:27:10.454Z,51.69
2019-05-12T19:29:49.806Z,54.36
2019-05-12T19:32:28.291Z,56.38
2019-05-12T19:35:09.484Z,58.76
2019-05-12T19:37:43.116Z,59.96
2019-05-12T19:40:20.643Z,60.85
2019-05-12T19:43:03.505Z,62.15
2019-05-12T19:45:33.768Z,64.75
2019-05-12T19:48:07.561Z,55.74
2019-05-12T19:50:55.021Z,52.57
2019-05-12T19:53:25.900Z,55.05
2019-05-12T19:56:03.873Z,57.31
2019-05-12T19:58:43.199Z,59.52
2019-05-12T20:01:16.312Z,60.06
2019-05-12T20:03:50.056Z,61.03
2019-05-12T20:06:24.321Z,61.64
2019-05-12T20:09:06.255Z,65.39
2019-05-12T20:11:31.692Z,56.36
2019-05-12T20:14:04.366Z,52.89
2019-05-12T20:16:37.752Z,55.46
2019-05-12T20:19:10.466Z,57.53
2019-05-12T20:21:43.844Z,58.82
2019-05-12T20:24:19.957Z,59.96
2019-05-12T20:26:53.777Z,61.13
2019-05-12T20:29:33.529Z,63.00
2019-05-12T20:32:00.559Z,65.43
2019-05-12T20:34:45.854Z,56.75
2019-05-12T20:37:13.146Z,53.31
2019-05-12T20:39:44.412Z,55.99
2019-05-12T20:42:16.079Z,58.20
2019-05-12T20:44:51.165Z,59.37
2019-05-12T20:47:23.477Z,60.77
2019-05-12T20:49:55.817Z,61.84
2019-05-12T20:52:28.502Z,65.21
2019-05-12T20:55:03.496Z,56.63
2019-05-12T20:57:40.120Z,53.35
2019-05-12T21:00:14.125Z,55.99
2019-05-12T21:02:46.523Z,58.22
2019-05-12T21:05:20.091Z,59.67
2019-05-12T21:07:55.796Z,61.22
2019-05-12T21:10:29.811Z,62.34
2019-05-12T21:13:01.143Z,65.16
2019-05-12T21:15:40.700Z,56.79
2019-05-12T21:18:07.721Z,53.43
2019-05-12T21:20:40.395Z,55.95
2019-05-12T21:23:13.511Z,58.11
2019-05-12T21:25:52.481Z,59.74
2019-05-12T21:28:21.107Z,60.75
2019-05-12T21:30:55.819Z,61.62
2019-05-12T21:33:31.287Z,64.97
2019-05-12T21:36:03.684Z,53.69
2019-05-12T21:38:36.122Z,51.50
2019-05-12T21:41:10.098Z,53.46
2019-05-12T21:43:43.764Z,55.17
2019-05-12T21:46:19.571Z,56.05
2019-05-12T21:48:53.221Z,56.82
2019-05-12T21:51:26.475Z,57.77
2019-05-12T21:53:59.149Z,59.34
2019-05-12T21:56:37.841Z,59.67
2019-05-12T21:59:06.053Z,60.16
2019-05-12T22:01:43.457Z,61.34
2019-05-12T22:04:14.377Z,61.93
2019-05-12T22:06:51.336Z,62.10
2019-05-12T22:09:23.881Z,62.98
2019-05-12T22:11:56.402Z,52.29
2019-05-12T22:14:30.487Z,52.12
2019-05-12T22:17:05.138Z,53.27
2019-05-12T22:19:38.309Z,55.01
2019-05-12T22:22:10.921Z,56.37
2019-05-12T22:24:44.131Z,57.31
2019-05-12T22:27:22.930Z,58.94
2019-05-12T22:29:51.520Z,59.70
2019-05-12T22:32:25.312Z,60.29
2019-05-12T22:34:58.194Z,60.62
2019-05-12T22:37:34.856Z,61.02
2019-05-12T22:40:15.125Z,61.58
2019-05-12T22:42:44.359Z,61.72
2019-05-12T22:45:17.006Z,63.69
2019-05-12T22:47:55.237Z,60.21
2019-05-12T22:50:27.387Z,53.50
2019-05-12T22:52:58.418Z,54.33
2019-05-12T22:55:33.296Z,55.87
2019-05-12T22:58:10.727Z,56.57
2019-05-12T23:00:44.414Z,57.88
2019-05-12T23:03:17.334Z,58.24
2019-05-12T23:05:50.947Z,59.46
2019-05-12T23:08:24.785Z,59.89
2019-05-12T23:10:58.946Z,60.77
2019-05-12T23:13:32.339Z,61.40
2019-05-12T23:16:06.258Z,62.38
2019-05-12T23:18:38.826Z,64.67
2019-05-12T23:21:13.305Z,56.24
2019-05-12T23:23:49.961Z,51.68
2019-05-12T23:26:20.565Z,53.26
2019-05-12T23:28:53.476Z,54.87
2019-05-12T23:31:30.231Z,56.10
2019-05-12T23:34:06.454Z,57.38
2019-05-12T23:36:38.990Z,59.19
2019-05-12T23:39:09.690Z,59.66
2019-05-12T23:41:43.676Z,60.52
2019-05-12T23:44:16.481Z,61.07
2019-05-12T23:46:49.160Z,64.10
2019-05-12T23:49:21.828Z,55.61
2019-05-12T23:51:54.519Z,51.98
2019-05-12T23:54:27.198Z,53.42
2019-05-12T23:57:00.072Z,55.01
2019-05-12T23:59:33.518Z,56.77
